createdAt,value
2023-06-05T00:00:46.164Z,4.07
2023-06-05T00:03:13.106Z,4.15
2023-06-05T00:05:40.038Z,4.25
2023-06-05T00:08:06.848Z,4.32
2023-06-05T00:10:34.974Z,4.32
2023-06-05T00:13:01.815Z,4.47
2023-06-05T00:15:28.616Z,4.57
2023-06-05T00:17:55.391Z,4.07
2023-06-05T00:20:22.308Z,4.43
2023-06-05T00:22:49.067Z,4.47
2023-06-05T00:25:15.929Z,4.45
2023-06-05T00:27:44.217Z,4.25
2023-06-05T00:30:11.762Z,4.70
2023-06-05T00:32:41.193Z,4.55
2023-06-05T00:35:08.927Z,4.28
2023-06-05T00:37:35.758Z,4.70
2023-06-05T00:40:02.580Z,4.88
2023-06-05T00:42:29.315Z,4.65
2023-06-05T00:44:57.507Z,4.70
2023-06-05T00:47:24.504Z,4.40
2023-06-05T00:49:51.493Z,4.25
2023-06-05T00:52:18.526Z,4.45
2023-06-05T00:54:45.451Z,4.70
2023-06-05T00:57:12.779Z,5.13
2023-06-05T00:59:39.746Z,5.30
2023-06-05T01:02:07.876Z,5.30
2023-06-05T01:04:34.928Z,4.88
2023-06-05T01:07:01.800Z,5.10
2023-06-05T01:09:28.902Z,4.80
2023-06-05T01:12:01.795Z,5.43
2023-06-05T01:14:30.861Z,5.30
2023-06-05T01:16:59.571Z,5.80
2023-06-05T01:19:28.399Z,4.93
2023-06-05T01:21:55.411Z,6.32
2023-06-05T01:24:23.932Z,5.80
2023-06-05T01:26:59.802Z,6.10
2023-06-05T01:29:33.361Z,6.00
2023-06-05T01:32:07.391Z,5.90
2023-06-05T01:34:37.392Z,5.85
2023-06-05T01:37:04.556Z,5.95
2023-06-05T01:39:33.407Z,5.97
2023-06-05T01:42:00.684Z,6.22
2023-06-05T01:44:28.222Z,5.88
2023-06-05T01:46:55.133Z,5.95
2023-06-05T01:49:22.436Z,6.60
2023-06-05T01:51:49.260Z,6.03
2023-06-05T01:54:16.108Z,6.13
2023-06-05T01:56:44.252Z,6.50
2023-06-05T01:59:11.102Z,6.18
2023-06-05T02:01:37.934Z,6.00
2023-06-05T02:04:05.113Z,6.43
2023-06-05T02:06:35.636Z,6.72
2023-06-05T02:09:02.554Z,6.38
2023-06-05T02:11:29.347Z,6.55
2023-06-05T02:13:57.511Z,6.28
2023-06-05T02:16:24.313Z,6.65
2023-06-05T02:18:51.173Z,5.85
2023-06-05T02:21:17.985Z,6.85
2023-06-05T02:23:44.966Z,7.05
2023-06-05T02:26:11.806Z,6.78
2023-06-05T02:28:38.573Z,6.90
2023-06-05T02:31:06.884Z,6.60
2023-06-05T02:33:34.041Z,6.22
2023-06-05T02:36:00.814Z,6.88
2023-06-05T02:38:27.983Z,6.53
2023-06-05T02:40:54.833Z,7.07
2023-06-05T02:43:21.668Z,6.60
2023-06-05T02:45:48.442Z,6.82
2023-06-05T02:48:16.661Z,7.13
2023-06-05T02:50:43.534Z,7.15
2023-06-05T02:53:10.295Z,6.60
2023-06-05T02:55:37.081Z,6.90
2023-06-05T02:58:03.867Z,7.10
2023-06-05T03:00:30.636Z,7.15
2023-06-05T03:02:57.516Z,7.20
2023-06-05T03:05:26.581Z,7.15
2023-06-05T03:07:53.913Z,6.95
2023-06-05T03:10:21.128Z,7.43
2023-06-05T03:12:47.917Z,7.22
2023-06-05T03:15:14.805Z,6.90
2023-06-05T03:17:41.632Z,7.13
2023-06-05T03:20:09.100Z,7.22
2023-06-05T03:22:37.675Z,7.45
2023-06-05T03:25:05.118Z,6.82
2023-06-05T03:27:32.123Z,7.70
2023-06-05T03:29:58.905Z,7.63
2023-06-05T03:32:25.691Z,7.18
2023-06-05T03:34:52.476Z,7.68
2023-06-05T03:37:19.237Z,7.18
2023-06-05T03:39:47.438Z,6.95
2023-06-05T03:42:14.282Z,7.78
2023-06-05T03:44:41.067Z,7.63
2023-06-05T03:47:07.959Z,7.22
2023-06-05T03:49:34.822Z,7.75
2023-06-05T03:52:01.598Z,7.38
2023-06-05T03:54:28.459Z,7.78
2023-06-05T03:56:56.670Z,7.82
2023-06-05T03:59:23.564Z,7.53
2023-06-05T04:01:50.866Z,7.63
2023-06-05T04:04:17.958Z,8.13
2023-06-05T04:06:44.874Z,7.50
2023-06-05T04:09:11.701Z,8.13
2023-06-05T04:11:39.143Z,7.88
2023-06-05T04:14:08.835Z,7.78
2023-06-05T04:16:35.763Z,7.38
2023-06-05T04:19:02.572Z,7.35
2023-06-05T04:21:31.219Z,7.53
2023-06-05T04:23:58.213Z,7.65
2023-06-05T04:26:25.033Z,7.75
2023-06-05T04:28:51.856Z,8.18
2023-06-05T04:31:20.020Z,8.52
2023-06-05T04:33:46.846Z,7.80
2023-06-05T04:36:14.705Z,7.97
2023-06-05T04:38:41.476Z,8.05
2023-06-05T04:41:08.472Z,7.63
2023-06-05T04:43:35.475Z,7.45
2023-06-05T04:46:02.328Z,7.40
2023-06-05T04:48:30.470Z,7.80
2023-06-05T04:50:57.262Z,8.00
2023-06-05T04:53:24.095Z,7.57
2023-06-05T04:55:50.878Z,8.07
2023-06-05T04:58:17.679Z,7.53
2023-06-05T05:00:44.493Z,7.35
2023-06-05T05:03:11.657Z,7.93
2023-06-05T05:05:40.013Z,7.50
2023-06-05T05:08:06.923Z,7.38
2023-06-05T05:10:33.836Z,7.40
2023-06-05T05:13:00.651Z,7.25
2023-06-05T05:15:27.522Z,7.00
2023-06-05T05:17:54.368Z,7.10
2023-06-05T05:20:21.173Z,7.28
2023-06-05T05:22:49.320Z,7.63
2023-06-05T05:25:16.458Z,7.20
2023-06-05T05:27:43.245Z,7.70
2023-06-05T05:30:11.064Z,7.60
2023-06-05T05:32:37.860Z,6.82
2023-06-05T05:35:06.441Z,6.95
2023-06-05T05:37:33.337Z,6.93
2023-06-05T05:40:01.519Z,7.43
2023-06-05T05:42:28.325Z,6.88
2023-06-05T05:44:55.098Z,7.05
2023-06-05T05:47:22.035Z,7.60
2023-06-05T05:49:48.904Z,7.38
2023-06-05T05:52:15.858Z,7.75
2023-06-05T05:54:42.637Z,7.55
2023-06-05T05:57:10.907Z,7.43
2023-06-05T05:59:37.873Z,7.50
2023-06-05T06:02:05.272Z,7.40
2023-06-05T06:04:32.137Z,6.72
2023-06-05T06:06:59.020Z,7.05
2023-06-05T06:09:25.958Z,7.18
2023-06-05T06:11:52.797Z,6.95
2023-06-05T06:14:21.104Z,7.45
2023-06-05T06:16:47.936Z,6.55
2023-06-05T06:19:14.933Z,7.30
2023-06-05T06:21:41.975Z,6.45
2023-06-05T06:24:09.254Z,6.38
2023-06-05T06:26:36.586Z,7.20
2023-06-05T06:29:03.698Z,7.47
2023-06-05T06:31:32.080Z,6.88
2023-06-05T06:33:59.020Z,6.55
2023-06-05T06:36:25.937Z,20.50
2023-06-05T06:38:52.957Z,8.07
2023-06-05T06:41:19.817Z,6.85
2023-06-05T06:43:46.647Z,6.90
2023-06-05T06:46:13.568Z,6.75
2023-06-05T06:48:41.754Z,6.57
2023-06-05T06:51:08.883Z,6.05
2023-06-05T06:53:35.923Z,6.18
2023-06-05T06:56:03.020Z,6.68
2023-06-05T06:58:29.811Z,6.38
2023-06-05T07:00:56.944Z,6.70
2023-06-05T07:03:24.035Z,6.32
2023-06-05T07:05:53.078Z,6.53
2023-06-05T07:08:19.973Z,6.20
2023-06-05T07:10:46.914Z,6.82
2023-06-05T07:13:13.744Z,6.78
2023-06-05T07:15:40.686Z,6.68
2023-06-05T07:18:07.526Z,6.20
2023-06-05T07:20:34.560Z,6.03
2023-06-05T07:23:03.135Z,6.43
2023-06-05T07:25:30.509Z,6.13
2023-06-05T07:27:57.534Z,6.38
2023-06-05T07:30:24.418Z,6.70
2023-06-05T07:32:51.455Z,6.85
2023-06-05T07:35:18.429Z,6.80
2023-06-05T07:37:45.199Z,6.65
2023-06-05T07:40:13.553Z,7.65
2023-06-05T07:42:40.552Z,6.68
2023-06-05T07:45:08.493Z,6.13
2023-06-05T07:47:35.427Z,6.85
2023-06-05T07:50:04.042Z,6.80
2023-06-05T07:52:32.061Z,5.95
2023-06-05T07:54:59.132Z,6.07
2023-06-05T07:57:27.385Z,6.25
2023-06-05T07:59:54.355Z,5.78
2023-06-05T08:02:21.933Z,5.75
2023-06-05T08:04:48.933Z,5.35
2023-06-05T08:07:15.839Z,6.25
2023-06-05T08:09:42.862Z,5.95
2023-06-05T08:12:09.731Z,5.32
2023-06-05T08:14:38.714Z,5.72
2023-06-05T08:17:05.708Z,5.70
2023-06-05T08:19:32.543Z,6.22
2023-06-05T08:21:59.355Z,5.80
2023-06-05T08:24:26.372Z,5.97
2023-06-05T08:26:53.161Z,5.40
2023-06-05T08:29:20.063Z,5.13
2023-06-05T08:31:48.338Z,5.22
2023-06-05T08:34:15.234Z,5.15
2023-06-05T08:36:42.081Z,5.78
2023-06-05T08:39:09.067Z,5.63
2023-06-05T08:41:36.689Z,5.68
2023-06-05T08:44:03.945Z,5.75
2023-06-05T08:46:31.186Z,5.53
2023-06-05T08:49:08.169Z,5.30
2023-06-05T08:51:35.350Z,5.10
2023-06-05T08:54:05.446Z,5.78
2023-06-05T08:56:33.144Z,5.30
2023-06-05T08:59:00.718Z,5.57
2023-06-05T09:01:28.126Z,5.70
2023-06-05T09:03:55.022Z,5.82
2023-06-05T09:06:23.405Z,5.93
2023-06-05T09:08:50.571Z,5.32
2023-06-05T09:11:25.022Z,5.85
2023-06-05T09:13:52.603Z,4.95
2023-06-05T09:16:22.940Z,5.82
2023-06-05T09:18:54.367Z,4.95
2023-06-05T09:21:22.868Z,5.10
2023-06-05T09:23:49.757Z,4.88
2023-06-05T09:26:16.625Z,5.22
2023-06-05T09:28:54.768Z,5.80
2023-06-05T09:31:21.778Z,5.07
2023-06-05T09:33:56.213Z,5.03
2023-06-05T09:36:25.348Z,4.90
2023-06-05T09:38:52.306Z,4.95
2023-06-05T09:41:19.408Z,4.70
2023-06-05T09:43:47.382Z,5.00
2023-06-05T09:46:16.204Z,5.22
2023-06-05T09:48:51.391Z,4.72
2023-06-05T09:51:18.484Z,4.80
2023-06-05T09:53:48.339Z,5.72
2023-06-05T09:56:16.706Z,5.63
2023-06-05T09:58:47.801Z,5.00
2023-06-05T10:01:17.917Z,5.30
2023-06-05T10:03:48.919Z,4.95
2023-06-05T10:06:19.890Z,5.30
2023-06-05T10:08:50.398Z,4.63
2023-06-05T10:11:18.109Z,4.57
2023-06-05T10:13:46.040Z,4.68
2023-06-05T10:16:25.000Z,4.68
2023-06-05T10:18:52.914Z,5.20
2023-06-05T10:21:20.074Z,5.40
2023-06-05T10:23:53.547Z,5.18
2023-06-05T10:26:38.194Z,4.68
2023-06-05T10:29:19.263Z,5.07
2023-06-05T10:31:49.723Z,4.95
2023-06-05T10:34:28.558Z,4.78
2023-06-05T10:37:31.043Z,4.60
2023-06-05T10:39:59.453Z,4.50
2023-06-05T10:42:27.257Z,4.65
2023-06-05T10:44:54.579Z,4.57
2023-06-05T10:47:49.902Z,4.28
2023-06-05T10:50:27.364Z,4.80
2023-06-05T10:52:56.048Z,5.30
2023-06-05T10:55:25.210Z,5.00
2023-06-05T10:58:08.925Z,4.35
2023-06-05T11:00:36.760Z,4.57
2023-06-05T11:03:03.903Z,4.28
2023-06-05T11:05:30.795Z,4.70
2023-06-05T11:08:11.652Z,4.88
2023-06-05T11:11:03.813Z,4.70
2023-06-05T11:13:55.201Z,4.50
2023-06-05T11:16:31.951Z,4.43
2023-06-05T11:19:38.331Z,4.50
2023-06-05T11:22:09.420Z,4.38
2023-06-05T11:24:36.905Z,4.47
2023-06-05T11:27:06.989Z,4.28
2023-06-05T11:29:34.136Z,4.10
2023-06-05T11:32:01.486Z,4.50
2023-06-05T11:34:28.380Z,4.80
2023-06-05T11:36:55.497Z,4.35
2023-06-05T11:39:22.296Z,4.40
2023-06-05T11:41:50.635Z,3.95
2023-06-05T11:44:31.672Z,4.13
2023-06-05T11:46:58.596Z,5.25
2023-06-05T11:49:27.357Z,4.03
2023-06-05T11:51:55.225Z,3.88
2023-06-05T11:54:26.776Z,3.92
2023-06-05T11:57:00.882Z,3.72
2023-06-05T11:59:29.197Z,4.20
2023-06-05T12:01:56.238Z,3.40
2023-06-05T12:04:23.423Z,3.88
2023-06-05T12:06:50.297Z,3.20
2023-06-05T12:09:17.131Z,3.28
2023-06-05T12:11:44.648Z,3.30
2023-06-05T12:14:15.417Z,4.10
2023-06-05T12:16:45.247Z,3.97
2023-06-05T12:19:15.952Z,3.35
2023-06-05T12:21:44.911Z,3.60
2023-06-05T12:24:11.991Z,3.70
2023-06-05T12:26:55.724Z,3.28
2023-06-05T12:29:23.933Z,3.60
2023-06-05T12:31:52.776Z,3.90
2023-06-05T12:34:19.799Z,3.60
2023-06-05T12:36:46.642Z,3.60
2023-06-05T12:39:14.170Z,3.70
2023-06-05T12:41:41.215Z,3.50
2023-06-05T12:44:09.548Z,3.20
2023-06-05T12:46:37.097Z,3.25
2023-06-05T12:49:05.989Z,3.78
2023-06-05T12:51:33.179Z,3.70
2023-06-05T12:54:00.036Z,3.40
2023-06-05T12:56:27.130Z,3.13
2023-06-05T12:58:54.901Z,3.10
2023-06-05T13:01:22.570Z,3.45
2023-06-05T13:03:49.746Z,2.92
2023-06-05T13:06:18.286Z,3.08
2023-06-05T13:08:45.512Z,3.33
2023-06-05T13:11:12.876Z,3.13
2023-06-05T13:13:40.073Z,3.00
2023-06-05T13:16:07.213Z,3.03
2023-06-05T13:18:34.320Z,3.22
2023-06-05T13:21:01.369Z,3.33
2023-06-05T13:23:29.595Z,3.30
2023-06-05T13:25:56.484Z,3.10
2023-06-05T13:28:23.355Z,3.20
2023-06-05T13:30:50.151Z,3.35
2023-06-05T13:33:16.972Z,3.38
2023-06-05T13:35:43.746Z,3.30
2023-06-05T13:38:10.718Z,3.00
2023-06-05T13:40:38.851Z,3.47
2023-06-05T13:43:05.668Z,3.17
2023-06-05T13:45:32.474Z,3.10
2023-06-05T13:47:59.267Z,3.30
2023-06-05T13:50:26.158Z,3.10
2023-06-05T13:52:52.982Z,2.95
2023-06-05T13:55:19.770Z,2.67
2023-06-05T13:57:48.017Z,2.78
2023-06-05T14:00:15.694Z,2.60
2023-06-05T14:02:42.860Z,2.60
2023-06-05T14:05:10.033Z,2.53
2023-06-05T14:07:48.286Z,2.63
2023-06-05T14:10:35.442Z,2.38
2023-06-05T14:13:03.931Z,2.25
2023-06-05T14:15:32.194Z,2.42
2023-06-05T14:17:59.107Z,2.83
2023-06-05T14:20:27.091Z,2.70
2023-06-05T14:22:53.996Z,2.60
2023-06-05T14:25:20.760Z,2.42
2023-06-05T14:27:47.574Z,2.63
2023-06-05T14:30:16.028Z,2.80
2023-06-05T14:32:42.815Z,2.58
2023-06-05T14:35:10.194Z,2.60
2023-06-05T14:37:36.982Z,2.50
2023-06-05T14:40:04.253Z,2.58
2023-06-05T14:42:31.119Z,2.60
2023-06-05T14:44:57.904Z,2.50
2023-06-05T14:47:26.037Z,2.58
2023-06-05T14:49:52.929Z,2.40
2023-06-05T14:52:19.893Z,2.50
2023-06-05T14:54:56.484Z,3.47
2023-06-05T14:57:31.220Z,2.70
2023-06-05T14:59:58.012Z,2.63
2023-06-05T15:02:26.224Z,2.72
2023-06-05T15:04:53.188Z,2.78
2023-06-05T15:07:20.508Z,2.40
2023-06-05T15:09:47.456Z,2.58
2023-06-05T15:12:14.350Z,2.67
2023-06-05T15:14:41.220Z,2.47
2023-06-05T15:17:08.008Z,2.30
2023-06-05T15:19:36.441Z,2.65
2023-06-05T15:22:03.483Z,2.58
2023-06-05T15:24:30.421Z,2.55
2023-06-05T15:26:57.214Z,2.97
2023-06-05T15:29:23.987Z,2.88
2023-06-05T15:31:50.942Z,3.30
2023-06-05T15:34:17.878Z,3.17
2023-06-05T15:36:46.059Z,2.78
2023-06-05T15:39:13.958Z,3.17
2023-06-05T15:41:41.070Z,3.58
2023-06-05T15:44:07.913Z,3.38
2023-06-05T15:46:34.812Z,3.13
2023-06-05T15:49:01.698Z,2.90
2023-06-05T15:51:28.631Z,3.22
2023-06-05T15:54:05.924Z,3.40
2023-06-05T15:56:41.942Z,4.22
2023-06-05T15:59:08.732Z,3.95
2023-06-05T16:01:35.531Z,3.67
2023-06-05T16:04:02.600Z,3.70
2023-06-05T16:06:29.410Z,3.30
2023-06-05T16:08:57.571Z,3.72
2023-06-05T16:11:24.368Z,3.60
2023-06-05T16:13:51.152Z,3.85
2023-06-05T16:16:18.077Z,3.58
2023-06-05T16:18:44.895Z,3.80
2023-06-05T16:21:12.016Z,3.75
2023-06-05T16:23:38.925Z,3.47
2023-06-05T16:26:07.123Z,3.35
2023-06-05T16:28:33.868Z,3.60
2023-06-05T16:31:00.665Z,4.07
2023-06-05T16:33:27.489Z,3.45
2023-06-05T16:35:54.422Z,3.30
2023-06-05T16:38:21.182Z,3.42
2023-06-05T16:40:47.955Z,3.60
2023-06-05T16:43:16.140Z,3.38
2023-06-05T16:45:43.889Z,3.70
2023-06-05T16:48:11.938Z,3.88
2023-06-05T16:50:38.733Z,3.55
2023-06-05T16:53:05.514Z,3.28
2023-06-05T16:55:32.324Z,2.97
2023-06-05T16:57:59.132Z,3.47
2023-06-05T17:00:27.305Z,3.60
2023-06-05T17:02:54.236Z,3.85
2023-06-05T17:05:21.417Z,2.95
2023-06-05T17:07:48.528Z,3.65
2023-06-05T17:10:15.444Z,4.68
2023-06-05T17:12:42.858Z,3.60
2023-06-05T17:15:10.414Z,3.53
2023-06-05T17:17:38.622Z,3.40
2023-06-05T17:20:06.645Z,3.70
2023-06-05T17:22:33.402Z,3.50
2023-06-05T17:25:00.174Z,3.53
2023-06-05T17:27:26.990Z,3.40
2023-06-05T17:29:53.778Z,3.53
2023-06-05T17:32:20.688Z,3.58
2023-06-05T17:34:48.848Z,3.45
2023-06-05T17:37:15.704Z,3.40
2023-06-05T17:39:42.480Z,3.45
2023-06-05T17:42:09.642Z,3.25
2023-06-05T17:44:36.410Z,3.45
2023-06-05T17:47:03.627Z,3.40
2023-06-05T17:49:30.565Z,3.88
2023-06-05T17:51:58.796Z,4.20
2023-06-05T17:54:25.719Z,3.92
2023-06-05T17:56:52.593Z,3.88
2023-06-05T17:59:19.418Z,4.03
2023-06-05T18:01:46.420Z,3.90
2023-06-05T18:04:13.872Z,3.92
2023-06-05T18:06:41.160Z,4.05
2023-06-05T18:09:09.322Z,4.18
2023-06-05T18:11:36.281Z,4.43
2023-06-05T18:14:05.223Z,4.20
2023-06-05T18:16:32.287Z,4.40
2023-06-05T18:18:59.116Z,4.65
2023-06-05T18:21:25.941Z,4.60
2023-06-05T18:23:52.943Z,4.78
2023-06-05T18:26:21.101Z,5.53
2023-06-05T18:28:47.943Z,4.70
2023-06-05T18:31:15.274Z,4.72
2023-06-05T18:33:42.148Z,4.25
2023-06-05T18:36:08.930Z,4.90
2023-06-05T18:38:35.741Z,4.80
2023-06-05T18:41:02.664Z,4.55
2023-06-05T18:43:30.940Z,5.65
2023-06-05T18:45:57.926Z,4.85
2023-06-05T18:48:24.768Z,4.40
2023-06-05T18:50:51.566Z,4.20
2023-06-05T18:53:18.372Z,4.80
2023-06-05T18:55:45.196Z,5.10
2023-06-05T18:58:18.725Z,4.70
2023-06-05T19:03:16.879Z,5.07
2023-06-05T19:05:44.661Z,4.80
2023-06-05T19:08:11.652Z,5.43
2023-06-05T19:10:38.425Z,5.05
2023-06-05T19:13:05.252Z,4.88
2023-06-05T19:15:32.196Z,6.00
2023-06-05T19:18:00.394Z,5.60
2023-06-05T19:20:27.256Z,5.95
2023-06-05T19:22:54.191Z,5.85
2023-06-05T19:25:21.095Z,5.90
2023-06-05T19:27:47.895Z,5.57
2023-06-05T19:30:14.730Z,5.50
2023-06-05T19:32:41.903Z,6.15
2023-06-05T19:35:10.513Z,5.53
2023-06-05T19:37:37.422Z,6.30
2023-06-05T19:40:04.754Z,5.90
2023-06-05T19:42:31.629Z,6.50
2023-06-05T19:44:58.544Z,6.43
2023-06-05T19:47:28.417Z,5.93
2023-06-05T19:49:58.338Z,6.10
2023-06-05T19:52:27.638Z,5.53
2023-06-05T19:54:54.418Z,5.85
2023-06-05T19:57:21.440Z,5.55
2023-06-05T19:59:48.483Z,5.88
2023-06-05T20:02:15.479Z,5.57
2023-06-05T20:04:42.353Z,5.70
2023-06-05T20:07:09.198Z,5.63
2023-06-05T20:09:37.497Z,5.72
2023-06-05T20:12:04.859Z,5.68
2023-06-05T20:14:31.776Z,5.50
2023-06-05T20:16:58.631Z,6.13
2023-06-05T20:19:28.180Z,5.68
2023-06-05T20:21:55.397Z,5.60
2023-06-05T20:24:22.361Z,6.25
2023-06-05T20:26:50.499Z,6.13
2023-06-05T20:29:17.524Z,5.47
2023-06-05T20:31:44.381Z,6.75
2023-06-05T20:34:13.719Z,6.68
2023-06-05T20:36:46.606Z,6.15
2023-06-05T20:39:14.451Z,6.30
2023-06-05T20:41:41.205Z,6.60
2023-06-05T20:44:09.446Z,6.68
2023-06-05T20:46:36.280Z,6.97
2023-06-05T20:49:03.122Z,6.38
2023-06-05T20:51:29.997Z,6.45
2023-06-05T20:53:56.881Z,6.63
2023-06-05T20:56:26.965Z,6.22
2023-06-05T20:58:54.420Z,5.70
2023-06-05T21:01:22.951Z,5.70
2023-06-05T21:03:50.003Z,5.40
2023-06-05T21:06:17.192Z,5.25
2023-06-05T21:08:43.986Z,5.28
2023-06-05T21:11:11.106Z,5.47
2023-06-05T21:13:38.251Z,5.80
2023-06-05T21:16:05.610Z,5.20
2023-06-05T21:18:33.838Z,5.70
2023-06-05T21:21:00.619Z,5.20
2023-06-05T21:23:27.405Z,5.40
2023-06-05T21:25:54.218Z,5.78
2023-06-05T21:28:21.081Z,5.57
2023-06-05T21:30:49.420Z,5.10
2023-06-05T21:33:16.201Z,5.47
2023-06-05T21:35:44.442Z,5.38
2023-06-05T21:38:11.204Z,5.55
2023-06-05T21:40:37.973Z,5.72
2023-06-05T21:43:04.810Z,6.38
2023-06-05T21:45:31.676Z,6.38
2023-06-05T21:47:58.499Z,6.10
2023-06-05T21:50:25.333Z,6.25
2023-06-05T21:52:53.483Z,6.20
2023-06-05T21:55:20.284Z,5.78
2023-06-05T21:57:47.070Z,6.10
2023-06-05T22:00:14.329Z,5.78
2023-06-05T22:02:41.185Z,5.93
2023-06-05T22:05:08.317Z,6.38
2023-06-05T22:07:35.166Z,6.47
2023-06-05T22:10:03.750Z,6.53
2023-06-05T22:12:30.645Z,7.07
2023-06-05T22:14:57.468Z,7.72
2023-06-05T22:17:24.258Z,8.40
2023-06-05T22:19:51.060Z,7.38
2023-06-05T22:22:17.831Z,7.30
2023-06-05T22:24:44.624Z,7.97
2023-06-05T22:27:12.844Z,8.07
2023-06-05T22:29:39.643Z,8.02
2023-06-05T22:32:07.271Z,8.18
2023-06-05T22:34:34.297Z,8.65
2023-06-05T22:37:01.149Z,8.70
2023-06-05T22:39:27.989Z,8.55
2023-06-05T22:41:54.744Z,9.18
2023-06-05T22:44:24.648Z,8.55
2023-06-05T22:46:52.653Z,8.02
2023-06-05T22:49:19.442Z,8.50
2023-06-05T22:51:46.246Z,8.88
2023-06-05T22:54:13.055Z,8.48
2023-06-05T22:56:39.826Z,8.45
2023-06-05T22:59:06.591Z,9.20
2023-06-05T23:01:34.751Z,8.07
2023-06-05T23:04:01.644Z,8.85
2023-06-05T23:06:28.489Z,8.18
2023-06-05T23:08:55.312Z,8.82
2023-06-05T23:11:22.121Z,8.98
2023-06-05T23:13:48.907Z,8.95
2023-06-05T23:16:15.835Z,9.30
2023-06-05T23:18:44.063Z,10.50
2023-06-05T23:21:11.162Z,10.18
2023-06-05T23:23:38.505Z,8.68
2023-06-05T23:26:05.777Z,10.45
2023-06-05T23:28:32.618Z,8.65
2023-06-05T23:30:59.512Z,8.30
2023-06-05T23:33:26.328Z,8.98
2023-06-05T23:35:54.555Z,9.07
2023-06-05T23:38:21.386Z,9.07
2023-06-05T23:40:48.424Z,8.85
2023-06-05T23:43:15.209Z,9.57
2023-06-05T23:45:42.060Z,9.10
2023-06-05T23:48:09.069Z,8.25
2023-06-05T23:50:35.859Z,8.82
2023-06-05T23:53:04.225Z,8.75
2023-06-05T23:55:31.044Z,8.98
2023-06-05T23:57:57.801Z,9.48
